Time;durP1;ratioP1;P1;durP2;ratioP2;P2;SDS_P1;SDS_P2;PMS_P1;PMS_P2;Temp;Humidity;BMP_temperature;BMP_pressure;BME280_temperature;BME280_humidity;BME280_pressure;Samples;Min_cycle;Max_cycle;Signal;HPM_P1;HPM_P2
2021/06/01 00:00:57;;;;;;;8.70;4.88;;;;;;;10.51;72.32;99820.16;5036690;28;20059;-68
2021/06/01 00:03:26;;;;;;;11.73;5.70;;;;;;;10.55;72.22;99816.78;5035340;28;20057;-68
2021/06/01 00:05:59;;;;;;;8.27;5.13;;;;;;;10.59;72.07;99812.50;5036257;28;20045;-67
2021/06/01 00:08:31;;;;;;;8.52;4.97;;;;;;;10.44;71.75;99803.13;5035851;28;20444;-68
2021/06/01 00:11:03;;;;;;;9.15;5.22;;;;;;;10.53;72.30;99818.44;5035945;28;20069;-68
2021/06/01 00:13:36;;;;;;;7.97;4.72;;;;;;;10.53;71.75;99813.34;5036156;28;20057;-68
2021/06/01 00:16:08;;;;;;;9.13;5.38;;;;;;;10.58;71.66;99811.66;5035906;28;20450;-67
2021/06/01 00:18:41;;;;;;;7.68;4.88;;;;;;;10.60;71.41;99815.09;5036049;28;20068;-68
2021/06/01 00:21:14;;;;;;;8.15;4.90;;;;;;;10.46;71.41;99801.44;5036231;28;20095;-67
2021/06/01 00:23:44;;;;;;;7.32;4.95;;;;;;;10.39;71.85;99804.81;5036030;28;20499;-68
2021/06/01 00:26:16;;;;;;;9.05;5.07;;;;;;;10.34;72.13;99806.50;5035377;28;20065;-68
2021/06/01 00:28:46;;;;;;;7.53;4.95;;;;;;;10.30;72.53;99809.06;5035734;28;20069;-68
2021/06/01 00:31:17;;;;;;;9.25;4.85;;;;;;;10.30;72.04;99809.91;5035734;28;20091;-67
2021/06/01 00:33:47;;;;;;;10.43;5.10;;;;;;;10.19;72.51;99815.84;5035748;28;20061;-67
2021/06/01 00:36:22;;;;;;;7.43;4.57;;;;;;;10.13;72.67;99821.75;5035694;28;20095;-68
2021/06/01 00:38:54;;;;;;;9.65;5.38;;;;;;;10.04;73.22;99825.09;5035626;28;20129;-67
2021/06/01 00:41:24;;;;;;;7.57;4.90;;;;;;;10.04;73.35;99816.59;5035356;28;20050;-68
2021/06/01 00:43:54;;;;;;;7.63;4.85;;;;;;;10.06;73.33;99820.00;5035864;28;20047;-68
2021/06/01 00:46:26;;;;;;;8.43;5.43;;;;;;;10.03;73.22;99812.34;5035461;28;20092;-68
2021/06/01 00:49:01;;;;;;;8.43;5.25;;;;;;;9.97;73.09;99814.88;5035346;28;20052;-68
2021/06/01 00:51:31;;;;;;;9.50;5.45;;;;;;;9.96;73.41;99818.25;5035707;28;20172;-67
2021/06/01 00:54:04;;;;;;;8.88;5.35;;;;;;;9.90;73.66;99808.91;5035348;28;20499;-68
2021/06/01 00:56:35;;;;;;;9.77;5.15;;;;;;;9.90;73.26;99813.16;5035424;28;20071;-68
2021/06/01 00:59:08;;;;;;;8.68;5.05;;;;;;;9.94;74.33;99819.97;5035379;28;20068;-67
2021/06/01 01:01:40;;;;;;;15.48;5.95;;;;;;;9.97;73.67;99822.53;5035188;28;20132;-67
2021/06/01 01:04:11;;;;;;;10.40;5.57;;;;;;;9.96;73.55;99828.47;5034725;28;20041;-67
2021/06/01 01:06:57;;;;;;;9.38;5.10;;;;;;;9.83;73.28;99808.88;5035175;28;20398;-69
2021/06/01 01:09:33;;;;;;;8.32;5.25;;;;;;;9.97;74.10;99825.06;5034919;28;20128;-69
2021/06/01 01:12:09;;;;;;;7.80;5.05;;;;;;;10.01;73.49;99826.78;5034969;28;20045;-68
2021/06/01 01:14:44;;;;;;;8.40;5.43;;;;;;;9.97;73.07;99830.19;5034979;28;20091;-67
2021/06/01 01:17:19;;;;;;;8.57;5.28;;;;;;;9.85;73.29;99830.97;5034921;28;20081;-68
2021/06/01 01:20:05;;;;;;;11.15;5.63;;;;;;;9.79;73.38;99830.94;5034906;28;20136;-68
2021/06/01 01:22:42;;;;;;;8.50;5.65;;;;;;;9.68;73.16;99834.28;5034504;28;20072;-67
2021/06/01 01:25:21;;;;;;;8.65;5.65;;;;;;;9.73;74.21;99835.16;5035016;28;20442;-68
2021/06/01 01:28:05;;;;;;;8.50;5.43;;;;;;;9.67;73.66;99830.03;5034696;28;20107;-68
2021/06/01 01:30:45;;;;;;;10.52;5.70;;;;;;;9.71;74.38;99827.53;5016797;28;20479;-68
2021/06/01 01:33:21;;;;;;;10.07;5.55;;;;;;;9.72;73.77;99828.34;5034636;28;20045;-67
2021/06/01 01:35:57;;;;;;;10.00;5.60;;;;;;;9.57;73.88;99818.09;5034325;28;20107;-67
2021/06/01 01:38:30;;;;;;;10.25;5.13;;;;;;;9.49;74.45;99824.84;5016260;28;20099;-68
2021/06/01 01:41:08;;;;;;;8.80;5.75;;;;;;;9.44;74.64;99835.84;5034528;28;20221;-67
2021/06/01 01:43:42;;;;;;;9.75;5.53;;;;;;;9.46;74.56;99833.31;5034396;28;20060;-68
2021/06/01 01:46:24;;;;;;;8.40;5.57;;;;;;;9.45;74.39;99829.91;5034408;28;20045;-66
2021/06/01 01:48:59;;;;;;;9.38;5.68;;;;;;;9.45;74.22;99829.91;5016635;28;20053;-68
2021/06/01 01:51:33;;;;;;;9.10;5.75;;;;;;;9.51;74.08;99830.78;5034311;28;20084;-68
2021/06/01 01:54:11;;;;;;;8.48;5.35;;;;;;;9.52;73.81;99829.94;5034183;28;20553;-66
2021/06/01 01:56:49;;;;;;;9.43;5.53;;;;;;;9.49;74.52;99830.78;5034213;28;20080;-68
2021/06/01 01:59:24;;;;;;;9.98;5.30;;;;;;;9.42;74.64;99824.81;5034577;28;20057;-68
2021/06/01 02:01:55;;;;;;;6.95;5.20;;;;;;;9.37;74.96;99831.56;5033236;28;20073;-68
2021/06/01 02:04:30;;;;;;;5.97;4.22;;;;;;;9.41;75.25;99828.19;5033875;28;20419;-67
2021/06/01 02:07:02;;;;;;;8.60;5.38;;;;;;;9.48;73.66;99828.25;5034518;28;20049;-69
2021/06/01 02:09:35;;;;;;;10.68;5.53;;;;;;;9.49;73.82;99824.84;5016242;28;20048;-67
2021/06/01 02:12:07;;;;;;;9.05;5.53;;;;;;;9.48;73.72;99823.16;5033654;28;20415;-68
2021/06/01 02:14:39;;;;;;;9.35;5.57;;;;;;;9.40;73.83;99821.41;5033884;28;20053;-68
2021/06/01 02:17:11;;;;;;;9.32;5.18;;;;;;;9.31;73.78;99816.22;5033990;28;20443;-66
2021/06/01 02:19:46;;;;;;;9.95;5.47;;;;;;;9.33;74.39;99823.91;5034022;28;20049;-68
2021/06/01 02:22:24;;;;;;;8.23;5.13;;;;;;;9.32;74.19;99823.03;5033868;28;20092;-67
2021/06/01 02:25:01;;;;;;;9.95;5.22;;;;;;;9.29;73.83;99817.91;5033863;28;20474;-68
2021/06/01 02:27:39;;;;;;;8.85;4.78;;;;;;;9.18;74.10;99819.56;5033766;28;20052;-68
2021/06/01 02:30:16;;;;;;;9.60;5.32;;;;;;;9.15;74.95;99824.63;5033598;28;20509;-67
2021/06/01 02:32:47;;;;;;;8.52;5.15;;;;;;;9.06;74.78;99819.47;5033778;28;20057;-67
2021/06/01 02:35:33;;;;;;;7.50;4.65;;;;;;;9.00;74.93;99819.41;5033508;28;20057;-69
2021/06/01 02:38:09;;;;;;;8.32;4.88;;;;;;;9.06;74.42;99816.91;5033639;28;20050;-67
2021/06/01 02:40:43;;;;;;;7.70;5.07;;;;;;;8.94;74.40;99813.41;5033646;28;20111;-68
2021/06/01 02:43:13;;;;;;;8.75;4.95;;;;;;;8.86;74.45;99821.00;5033564;28;20061;-68
2021/06/01 02:45:46;;;;;;;7.85;4.78;;;;;;;8.88;74.67;99816.75;5033609;28;20049;-67
2021/06/01 02:48:22;;;;;;;8.73;4.78;;;;;;;8.94;75.04;99809.19;5033954;28;20059;-67
2021/06/01 02:50:54;;;;;;;8.40;4.63;;;;;;;8.94;75.07;99809.19;5036765;28;20134;-67
2021/06/01 02:53:24;;;;;;;10.45;4.78;;;;;;;9.00;75.34;99819.41;5037617;28;20045;-68
2021/06/01 02:55:53;;;;;;;10.02;5.32;;;;;;;9.11;74.90;99822.03;5037216;28;20053;-67
2021/06/01 02:58:25;;;;;;;7.47;4.57;;;;;;;9.08;75.18;99815.22;5037500;28;20065;-68
2021/06/01 03:01:01;;;;;;;11.02;4.88;;;;;;;9.09;75.46;99813.53;5037504;28;20041;-68
2021/06/01 03:03:33;;;;;;;8.98;4.65;;;;;;;9.12;74.37;99811.84;5036481;28;20061;-68
2021/06/01 03:06:08;;;;;;;9.38;4.70;;;;;;;9.08;74.40;99812.69;5037166;28;20498;-67
2021/06/01 03:08:43;;;;;;;8.93;5.28;;;;;;;9.09;75.23;99809.31;5037497;28;20483;-69
2021/06/01 03:11:18;;;;;;;8.80;4.75;;;;;;;9.14;74.98;99811.88;5037295;28;20053;-67
2021/06/01 03:13:52;;;;;;;10.43;5.00;;;;;;;9.18;75.04;99814.47;5037093;28;20064;-67
2021/06/01 03:16:24;;;;;;;10.30;5.35;;;;;;;9.18;74.13;99814.47;5036929;28;20061;-66
2021/06/01 03:18:53;;;;;;;7.55;4.72;;;;;;;9.19;75.04;99805.97;5037133;28;20418;-68
2021/06/01 03:21:26;;;;;;;7.68;4.30;;;;;;;9.34;74.62;99811.16;5019378;28;20049;-67
2021/06/01 03:23:56;;;;;;;7.68;4.40;;;;;;;9.23;73.91;99812.81;5037128;28;20064;-68
2021/06/01 03:26:28;;;;;;;8.15;4.97;;;;;;;9.13;74.69;99811.03;5036923;28;20072;-67
2021/06/01 03:28:59;;;;;;;7.75;4.65;;;;;;;9.05;74.66;99809.25;5036718;28;20494;-68
2021/06/01 03:31:32;;;;;;;10.40;5.47;;;;;;;9.06;74.92;99814.38;5036676;28;20453;-67
2021/06/01 03:34:01;;;;;;;9.60;5.05;;;;;;;9.24;75.50;99808.53;5037159;28;20077;-69
2021/06/01 03:36:37;;;;;;;7.97;4.90;;;;;;;9.31;73.99;99815.38;5037014;28;20399;-68
2021/06/01 03:39:08;;;;;;;11.15;5.10;;;;;;;9.38;74.19;99817.16;5036772;28;20056;-66
2021/06/01 03:41:40;;;;;;;9.68;4.95;;;;;;;9.44;73.87;99812.94;5036725;28;20411;-66
2021/06/01 03:44:09;;;;;;;8.23;5.05;;;;;;;9.56;74.23;99816.38;5036696;28;20432;-66
2021/06/01 03:46:41;;;;;;;10.57;5.57;;;;;;;9.57;73.81;99811.31;5036534;28;20054;-68
2021/06/01 03:49:10;;;;;;;8.95;5.50;;;;;;;9.65;74.18;99816.41;5036893;28;20368;-68
2021/06/01 03:51:44;;;;;;;8.45;4.97;;;;;;;9.74;73.69;99817.31;5036474;28;20092;-68
2021/06/01 03:54:13;;;;;;;7.68;4.45;;;;;;;9.79;72.54;99815.66;5036802;28;20156;-68
2021/06/01 03:56:45;;;;;;;8.13;4.78;;;;;;;9.84;72.00;99818.22;5036366;28;20128;-67
2021/06/01 03:59:17;;;;;;;7.45;4.47;;;;;;;9.93;72.36;99818.28;5036442;28;20096;-66
2021/06/01 04:01:50;;;;;;;10.32;5.18;;;;;;;10.03;72.09;99814.88;5002345;28;20535;-68
2021/06/01 04:04:19;;;;;;;8.07;4.95;;;;;;;10.01;71.83;99822.53;5018380;28;20055;-68
2021/06/01 04:06:52;;;;;;;9.43;3.47;;;;;;;10.07;71.66;99825.13;5036235;28;20052;-67
2021/06/01 04:09:24;;;;;;;9.30;4.65;;;;;;;10.20;71.83;99818.38;5035915;28;20487;-68
2021/06/01 04:11:56;;;;;;;11.43;5.07;;;;;;;10.24;71.37;99830.31;5036486;28;20092;-68
2021/06/01 04:14:31;;;;;;;9.50;4.95;;;;;;;10.26;71.01;99818.41;5036147;28;20140;-68
2021/06/01 04:17:03;;;;;;;12.77;5.32;;;;;;;10.30;70.59;99809.06;5036063;28;20509;-68
2021/06/01 04:19:33;;;;;;;9.98;4.43;;;;;;;10.48;70.32;99825.28;5018426;28;20060;-66
2021/06/01 04:22:06;;;;;;;;;;;;;;;10.62;70.67;99821.03;5036673;28;20063;-67
2021/06/01 04:24:41;;;;;;;7.75;4.38;;;;;;;10.73;70.03;99800.59;5035992;28;19976;-68
2021/06/01 04:27:16;;;;;;;7.18;4.68;;;;;;;10.94;69.82;99818.47;5035841;28;20081;-68
2021/06/01 04:29:51;;;;;;;7.15;4.60;;;;;;;10.97;69.33;99815.94;5035799;28;20087;-68
2021/06/01 04:32:20;;;;;;;8.23;4.55;;;;;;;11.01;68.82;99812.56;5035617;28;20045;-68
2021/06/01 04:34:52;;;;;;;9.10;4.75;;;;;;;11.22;68.66;99811.66;5035720;28;20129;-68
2021/06/01 04:37:25;;;;;;;10.98;4.80;;;;;;;11.41;68.04;99808.22;5035666;28;20069;-68
2021/06/01 04:39:57;;;;;;;7.75;4.57;;;;;;;11.68;67.73;99808.19;5035636;28;20049;-68
2021/06/01 04:42:29;;;;;;;8.90;4.97;;;;;;;11.93;66.71;99812.34;5035650;28;20053;-69
2021/06/01 04:45:01;;;;;;;12.55;4.75;;;;;;;12.09;66.26;99815.72;5035583;28;20053;-67
2021/06/01 04:47:30;;;;;;;8.80;4.65;;;;;;;12.35;66.06;99802.75;5035498;28;20049;-68
2021/06/01 04:50:02;;;;;;;6.22;3.15;;;;;;;12.64;65.10;99803.44;5035319;28;20426;-67
2021/06/01 04:52:36;;;;;;;8.70;4.47;;;;;;;12.76;64.37;99793.09;5017885;28;20060;-69
2021/06/01 04:55:10;;;;;;;7.40;4.60;;;;;;;12.84;64.22;99799.00;5035385;28;20053;-67
2021/06/01 04:57:42;;;;;;;6.97;4.53;;;;;;;12.93;63.80;99798.09;5035233;28;20053;-68
2021/06/01 05:00:15;;;;;;;7.47;4.40;;;;;;;13.02;63.91;99793.72;5035280;28;20059;-68
2021/06/01 05:02:49;;;;;;;7.65;4.30;;;;;;;13.20;63.15;99793.56;5034478;28;20061;-69
2021/06/01 05:05:22;;;;;;;8.77;5.10;;;;;;;13.35;63.19;99793.44;5035147;28;20057;-67
2021/06/01 05:07:53;;;;;;;11.35;4.85;;;;;;;13.60;62.75;99801.72;5035091;28;20056;-68
2021/06/01 05:10:23;;;;;;;8.98;4.28;;;;;;;13.85;62.16;99797.16;5035246;28;20065;-69
2021/06/01 05:12:52;;;;;;;7.83;4.73;;;;;;;13.94;61.72;99789.34;5035018;28;20076;-68
2021/06/01 05:15:24;;;;;;;10.60;4.93;;;;;;;14.06;61.25;99794.31;5035002;28;20452;-69
2021/06/01 05:17:53;;;;;;;6.72;3.60;;;;;;;14.08;60.38;99797.72;5034798;28;20053;-68
2021/06/01 05:20:25;;;;;;;8.25;4.57;;;;;;;14.07;60.30;99796.00;5034755;28;20252;-69
2021/06/01 05:22:59;;;;;;;6.13;4.00;;;;;;;14.17;59.84;99797.59;5034849;28;20057;-69
2021/06/01 05:25:30;;;;;;;9.63;4.68;;;;;;;14.35;59.27;99797.38;5034792;28;20076;-68
2021/06/01 05:27:59;;;;;;;11.52;4.43;;;;;;;14.57;59.46;99808.19;5034913;28;20149;-68
2021/06/01 05:30:36;;;;;;;9.15;4.20;;;;;;;14.77;59.36;99801.03;5034407;28;20056;-69
2021/06/01 05:33:12;;;;;;;7.18;4.00;;;;;;;14.92;59.06;99797.38;5034678;28;20447;-68
2021/06/01 05:35:45;;;;;;;8.45;4.50;;;;;;;15.14;58.34;99802.09;5034583;28;20065;-67
2021/06/01 05:38:20;;;;;;;8.73;3.60;;;;;;;15.27;57.52;99798.44;5034565;28;20419;-69
2021/06/01 05:40:53;;;;;;;6.85;3.47;;;;;;;15.30;56.70;99800.97;5034457;28;20041;-69
2021/06/01 05:43:25;;;;;;;18.40;13.13;;;;;;;15.24;56.17;99795.94;5034646;28;20217;-68
2021/06/01 05:45:57;;;;;;;6.75;3.90;;;;;;;15.23;56.46;99804.53;5034455;28;20148;-68
2021/06/01 05:48:26;;;;;;;9.07;3.17;;;;;;;15.30;56.06;99803.56;5034412;28;20053;-67
2021/06/01 05:50:56;;;;;;;8.63;3.80;;;;;;;15.42;55.74;99812.75;5033990;28;20045;-68
2021/06/01 05:53:29;;;;;;;5.75;3.13;;;;;;;15.60;55.54;99799.56;5034256;28;20080;-68
2021/06/01 05:56:01;;;;;;;7.18;4.22;;;;;;;15.73;55.09;99801.06;5000183;28;20136;-68
2021/06/01 05:58:38;;;;;;;12.90;5.30;;;;;;;15.77;55.35;99802.69;4999997;28;20081;-68
2021/06/01 06:01:09;;;;;;;9.50;4.68;;;;;;;15.76;54.77;99801.00;5034246;28;20132;-67
2021/06/01 06:03:46;;;;;;;7.85;4.38;;;;;;;15.77;54.20;99804.41;5012654;28;20058;-67
2021/06/01 06:06:20;;;;;;;5.78;3.40;;;;;;;15.89;54.15;99797.28;5013240;28;20122;-68
2021/06/01 06:08:54;;;;;;;6.57;3.20;;;;;;;15.98;53.37;99802.22;5014085;28;20073;-68
2021/06/01 06:11:25;;;;;;;7.15;3.00;;;;;;;16.09;52.64;99797.72;5014267;28;20492;-68
2021/06/01 06:13:54;;;;;;;6.03;2.72;;;;;;;16.18;52.20;99798.41;5014195;28;20081;-68
2021/06/01 06:16:29;;;;;;;7.82;2.97;;;;;;;16.29;51.97;99793.88;5014412;28;20058;-68
2021/06/01 06:19:01;;;;;;;6.13;3.42;;;;;;;16.45;51.19;99796.06;5014180;28;20080;-68
2021/06/01 06:21:34;;;;;;;7.95;3.63;;;;;;;16.58;51.05;99801.84;5014174;28;20137;-68
2021/06/01 06:24:05;;;;;;;6.40;3.08;;;;;;;16.77;50.44;99797.09;5013565;28;20125;-67
2021/06/01 06:26:37;;;;;;;5.47;3.03;;;;;;;16.91;49.81;99800.19;5014037;28;20555;-68
2021/06/01 06:29:06;;;;;;;5.95;3.00;;;;;;;17.00;49.75;99797.38;5014116;28;20140;-67
2021/06/01 06:31:39;;;;;;;8.88;3.28;;;;;;;17.15;49.04;99800.44;5013938;28;20391;-67
2021/06/01 06:34:08;;;;;;;5.90;2.90;;;;;;;17.17;49.19;99801.22;5014885;28;20120;-67
2021/06/01 06:36:40;;;;;;;7.10;3.10;;;;;;;17.25;48.91;99796.69;5013820;28;20116;-66
2021/06/01 06:39:11;;;;;;;5.35;3.15;;;;;;;17.19;48.61;99796.88;5013990;28;20060;-68
2021/06/01 06:41:43;;;;;;;6.60;3.80;;;;;;;17.17;48.79;99790.91;5013928;28;20410;-67
2021/06/01 06:44:13;;;;;;;9.57;3.85;;;;;;;17.24;48.90;99786.44;5013944;28;20065;-67
2021/06/01 06:46:52;;;;;;;8.43;5.10;;;;;;;17.33;49.20;99779.28;5014236;28;20093;-67
2021/06/01 06:49:22;;;;;;;6.15;3.08;;;;;;;17.55;48.96;99784.75;5013872;28;20058;-68
2021/06/01 06:51:54;;;;;;;;;;;;;;;17.68;48.86;99786.13;5014289;28;20038;-67
2021/06/01 06:54:25;;;;;;;5.57;2.70;;;;;;;17.88;48.38;99788.13;5013809;28;19953;-67
2021/06/01 06:56:57;;;;;;;7.40;3.30;;;;;;;17.85;47.97;99788.22;5014137;28;20399;-67
2021/06/01 06:59:26;;;;;;;5.60;3.13;;;;;;;17.84;47.94;99791.69;5014100;28;20069;-68
2021/06/01 07:01:56;;;;;;;7.10;3.00;;;;;;;17.94;48.02;99775.06;5013948;28;20050;-67
2021/06/01 07:04:25;;;;;;;5.53;2.97;;;;;;;18.12;48.00;99787.41;5032665;28;20171;-67
2021/06/01 07:06:58;;;;;;;5.20;2.75;;;;;;;18.29;47.89;99785.16;5033184;28;20392;-66
2021/06/01 07:09:29;;;;;;;6.90;3.30;;;;;;;18.55;47.21;99784.41;5033409;28;20144;-67
2021/06/01 07:12:01;;;;;;;6.10;2.70;;;;;;;18.72;47.25;99780.38;5033004;28;20046;-67
2021/06/01 07:14:45;;;;;;;7.30;3.05;;;;;;;18.72;46.90;99784.72;5033733;28;20111;-68
2021/06/01 07:17:18;;;;;;;5.55;3.00;;;;;;;18.61;46.92;99779.91;5033270;28;20060;-68
2021/06/01 07:19:53;;;;;;;6.28;3.13;;;;;;;18.74;47.26;99783.75;5033637;28;20049;-67
2021/06/01 07:22:23;;;;;;;7.90;4.85;;;;;;;19.07;46.47;99781.84;5032850;28;20053;-67
2021/06/01 07:24:53;;;;;;;6.90;2.80;;;;;;;19.33;45.05;99783.53;5033059;28;20049;-68
2021/06/01 07:27:22;;;;;;;4.20;2.38;;;;;;;19.56;43.78;99778.41;5033079;28;20495;-68
2021/06/01 07:29:54;;;;;;;3.55;2.10;;;;;;;19.82;41.95;99775.72;5032924;28;20116;-68
2021/06/01 07:32:23;;;;;;;5.13;2.58;;;;;;;20.00;41.64;99772.47;5032690;28;20061;-66
2021/06/01 07:34:53;;;;;;;4.57;2.38;;;;;;;19.98;40.20;99758.72;5033043;28;20096;-68
2021/06/01 07:37:22;;;;;;;;;;;;;;;20.10;39.83;99766.91;5011803;28;20491;-69
2021/06/01 07:39:52;;;;;;;3.78;2.10;;;;;;;20.21;38.83;99759.56;5033123;28;19925;-68
2021/06/01 07:42:21;;;;;;;7.15;2.20;;;;;;;20.21;39.32;99764.75;5030777;28;20049;-65
2021/06/01 07:44:53;;;;;;;3.97;2.10;;;;;;;20.32;38.35;99757.47;5022639;28;20053;-69
2021/06/01 07:47:23;;;;;;;3.55;2.10;;;;;;;20.28;37.14;99754.13;5016549;28;20038;-65
2021/06/01 07:49:51;;;;;;;3.67;2.00;;;;;;;20.30;37.17;99754.09;5018068;28;20050;-69
2021/06/01 07:52:23;;;;;;;3.20;1.92;;;;;;;20.60;36.69;99758.03;5027677;28;20048;-65
2021/06/01 07:54:56;;;;;;;5.47;2.30;;;;;;;20.22;36.73;99740.53;5031739;28;20057;-66
2021/06/01 07:57:24;;;;;;;5.20;2.20;;;;;;;19.76;37.83;99755.22;5036380;28;20041;-68
2021/06/01 07:59:56;;;;;;;4.33;2.50;;;;;;;19.38;37.93;99755.78;5032709;28;20076;-68
2021/06/01 08:02:25;;;;;;;7.13;2.25;;;;;;;19.35;38.18;99755.84;5031125;28;20068;-68
2021/06/01 08:05:00;;;;;;;3.63;1.90;;;;;;;19.66;37.60;99746.09;5032009;28;20433;-68
2021/06/01 08:07:34;;;;;;;4.18;1.90;;;;;;;20.01;37.19;99753.41;5035177;28;20119;-67
2021/06/01 08:10:06;;;;;;;5.90;2.20;;;;;;;19.77;36.71;99749.13;4997313;28;20256;-67
2021/06/01 08:12:38;;;;;;;5.60;2.35;;;;;;;19.85;36.61;99752.28;5015857;28;20041;-67
2021/06/01 08:15:09;;;;;;;4.45;2.30;;;;;;;20.08;38.03;99748.84;5016501;28;20395;-67
2021/06/01 08:17:41;;;;;;;5.40;2.47;;;;;;;20.37;36.13;99740.78;4998913;28;20124;-68
2021/06/01 08:20:16;;;;;;;3.88;2.00;;;;;;;19.78;36.57;99740.47;5016222;28;20054;-68
2021/06/01 08:22:49;;;;;;;4.45;2.10;;;;;;;20.11;35.83;99747.91;5015922;28;20381;-69
2021/06/01 08:25:20;;;;;;;5.80;2.22;;;;;;;20.29;36.28;99736.81;5016124;28;20068;-68
2021/06/01 08:27:52;;;;;;;6.32;2.67;;;;;;;20.40;35.84;99747.59;5016374;28;20128;-68
2021/06/01 08:30:26;;;;;;;3.42;2.00;;;;;;;20.49;35.32;99761.06;5015730;28;20047;-63
2021/06/01 08:32:59;;;;;;;4.65;2.40;;;;;;;20.56;34.95;99740.94;5015923;28;20054;-68
2021/06/01 08:35:29;;;;;;;3.60;1.83;;;;;;;20.52;36.40;99753.16;5020047;28;20049;-67
2021/06/01 08:37:59;;;;;;;5.03;2.80;;;;;;;21.11;36.40;99745.56;5035626;28;20049;-68
2021/06/01 08:40:29;;;;;;;4.57;2.45;;;;;;;21.49;35.28;99753.44;5035573;28;20042;-69
2021/06/01 08:43:01;;;;;;;4.45;2.03;;;;;;;21.32;35.86;99749.81;5035791;28;20057;-69
2021/06/01 08:45:33;;;;;;;4.50;2.45;;;;;;;21.50;36.04;99749.94;5035197;28;20479;-67
2021/06/01 08:48:06;;;;;;;4.40;2.30;;;;;;;21.53;35.33;99747.19;5034898;28;20542;-68
2021/06/01 08:50:35;;;;;;;6.47;2.58;;;;;;;21.50;35.76;99747.34;5035197;28;20402;-68
2021/06/01 08:53:13;;;;;;;4.00;2.10;;;;;;;21.39;35.03;99763.38;5035633;28;20514;-67
2021/06/01 08:55:47;;;;;;;5.18;2.22;;;;;;;21.36;35.22;99761.75;5035228;28;20495;-65
2021/06/01 08:58:18;;;;;;;4.63;2.30;;;;;;;21.30;35.09;99756.84;5035326;28;20458;-68
2021/06/01 09:00:49;;;;;;;4.95;2.45;;;;;;;20.70;35.67;99749.84;5035240;28;20046;-68
2021/06/01 09:03:24;;;;;;;5.22;2.65;;;;;;;20.91;35.73;99758.47;5034358;28;20065;-68
2021/06/01 09:06:13;;;;;;;5.70;2.53;;;;;;;21.19;34.84;99747.78;5034915;28;20100;-68
2021/06/01 09:08:53;;;;;;;5.05;2.40;;;;;;;21.12;33.54;99752.41;5035090;28;20410;-69
2021/06/01 09:11:38;;;;;;;4.13;2.17;;;;;;;20.81;33.28;99751.97;5034930;28;20049;-69
2021/06/01 09:22:30;;;;;;;5.05;2.70;;;;;;;21.17;33.62;99741.84;5034506;28;20061;-68
2021/06/01 09:25:01;;;;;;;4.72;1.80;;;;;;;21.51;32.98;99741.22;5034645;28;20103;-68
2021/06/01 09:27:42;;;;;;;4.35;2.30;;;;;;;21.58;33.15;99735.69;5035057;28;20388;-68
2021/06/01 09:30:37;;;;;;;3.95;2.00;;;;;;;21.90;33.65;99744.66;5034882;28;20132;-67
2021/06/01 09:33:10;;;;;;;5.25;1.70;;;;;;;22.28;33.23;99732.47;5034239;28;20053;-68
2021/06/01 09:35:49;;;;;;;4.50;2.00;;;;;;;22.60;33.22;99730.00;5034607;28;20053;-67
2021/06/01 09:38:21;;;;;;;4.35;2.00;;;;;;;22.77;32.19;99741.38;5034403;28;20085;-65
2021/06/01 09:41:04;;;;;;;4.32;2.50;;;;;;;22.51;31.14;99733.03;5034135;28;20049;-68
2021/06/01 09:43:36;;;;;;;3.40;1.90;;;;;;;22.50;31.69;99736.56;5034209;28;20491;-67
2021/06/01 09:46:20;;;;;;;3.10;1.73;;;;;;;22.65;32.31;99691.59;5034241;28;20466;-68
2021/06/01 09:48:54;;;;;;;4.18;2.47;;;;;;;23.11;31.58;99715.31;5034393;28;20042;-67
2021/06/01 09:51:32;;;;;;;3.75;1.85;;;;;;;23.01;30.19;99734.94;5034021;28;20054;-67
2021/06/01 09:54:29;;;;;;;4.18;2.08;;;;;;;22.76;29.96;99719.72;5034224;28;20140;-67
2021/06/01 09:56:58;;;;;;;3.60;1.77;;;;;;;22.22;30.14;99711.97;5033684;28;20045;-68
2021/06/01 09:59:29;;;;;;;3.55;1.80;;;;;;;21.89;30.60;99714.38;5033413;28;20088;-67
2021/06/01 10:01:58;;;;;;;4.88;2.00;;;;;;;21.56;31.89;99700.28;5016810;28;20053;-66
2021/06/01 10:04:28;;;;;;;7.90;1.80;;;;;;;21.25;31.90;99719.84;5033607;28;20148;-67
2021/06/01 10:06:57;;;;;;;6.22;2.30;;;;;;;21.04;32.05;99714.69;5033509;28;20054;-68
2021/06/01 10:09:26;;;;;;;3.92;2.00;;;;;;;20.98;32.16;99713.19;5033670;28;20057;-67
2021/06/01 10:11:59;;;;;;;8.45;1.80;;;;;;;21.32;32.05;99707.44;5033686;28;20042;-67
2021/06/01 10:14:30;;;;;;;3.25;1.85;;;;;;;21.64;31.44;99698.19;5033870;28;20049;-68
2021/06/01 10:16:59;;;;;;;3.28;1.70;;;;;;;21.66;30.68;99701.56;5033848;28;20129;-67
2021/06/01 10:19:33;;;;;;;3.42;1.83;;;;;;;21.25;30.91;99712.06;5033639;28;20058;-68
2021/06/01 10:22:03;;;;;;;4.78;1.90;;;;;;;20.88;31.13;99709.28;5033837;28;20073;-67
2021/06/01 10:24:34;;;;;;;;;;;;;;;21.15;30.68;99699.53;5034175;28;20046;-68
2021/06/01 10:27:09;;;;;;;2.83;1.80;;;;;;;21.04;31.46;99692.16;5033825;28;20019;-68
2021/06/01 10:29:41;;;;;;;5.85;1.80;;;;;;;21.62;32.44;99710.41;5033723;28;20088;-67
2021/06/01 10:32:13;;;;;;;8.35;1.88;;;;;;;21.46;31.30;99699.88;5033930;28;20045;-68
2021/06/01 10:34:50;;;;;;;2.95;1.67;;;;;;;21.34;30.63;99695.22;5033461;28;20057;-67
2021/06/01 10:43:37;;;;;;;5.80;1.88;;;;;;;21.88;29.02;99689.31;5033374;28;20045;-68
2021/06/01 10:52:11;;;;;;;3.92;1.92;;;;;;;23.32;28.24;99696.00;5033623;28;20055;-68
2021/06/01 10:54:54;;;;;;;4.22;1.60;;;;;;;23.11;27.87;99691.88;5033534;28;20053;-69
2021/06/01 10:57:25;;;;;;;4.78;2.10;;;;;;;23.05;28.40;99689.59;5015784;28;20099;-69
2021/06/01 11:03:03;;;;;;;3.47;1.70;;;;;;;23.69;29.18;99677.50;4995637;28;20120;-68
2021/06/01 11:05:40;;;;;;;5.75;1.85;;;;;;;23.65;29.19;99681.19;5013298;28;20065;-68
2021/06/01 11:08:36;;;;;;;4.05;2.10;;;;;;;23.38;30.24;99676.59;5013462;28;20049;-67
2021/06/01 11:11:28;;;;;;;7.32;2.30;;;;;;;23.77;31.12;99680.53;5015301;28;20049;-68
2021/06/01 11:13:57;;;;;;;3.75;1.60;;;;;;;24.24;29.14;99679.66;5017308;28;20053;-67
2021/06/01 11:16:27;;;;;;;5.20;1.70;;;;;;;24.51;28.24;99672.88;5017270;28;20048;-67
2021/06/01 11:19:01;;;;;;;7.60;2.50;;;;;;;24.48;28.08;99673.91;5016142;28;20389;-68
2021/06/01 11:21:35;;;;;;;3.53;1.98;;;;;;;24.77;28.60;99680.06;5017200;28;20514;-67
2021/06/01 11:32:58;;;;;;;4.05;2.60;;;;;;;24.62;28.63;99680.94;5016860;28;20569;-67
2021/06/01 11:35:38;;;;;;;3.80;1.90;;;;;;;24.80;28.62;99661.63;5016827;28;20045;-67
2021/06/01 11:38:15;;;;;;;5.65;2.00;;;;;;;24.98;28.08;99668.34;5017017;28;20153;-67
2021/06/01 11:40:59;;;;;;;4.15;2.20;;;;;;;24.82;27.62;99661.53;5016971;28;20050;-67
2021/06/01 11:43:31;;;;;;;3.70;2.00;;;;;;;24.40;27.40;99672.69;5015529;28;20042;-68
2021/06/01 11:46:09;;;;;;;2.75;1.65;;;;;;;24.22;27.22;99660.66;5016789;28;20377;-67
2021/06/01 11:51:30;;;;;;;3.70;1.88;;;;;;;25.18;29.19;99665.38;5016709;28;20140;-67
2021/06/01 11:54:04;;;;;;;3.95;2.03;;;;;;;24.95;27.27;99668.56;5016667;28;20050;-68
2021/06/01 11:56:42;;;;;;;5.18;2.00;;;;;;;24.37;27.16;99657.19;5016551;28;20053;-67
2021/06/01 12:04:58;;;;;;;3.95;1.88;;;;;;;23.51;27.87;99662.84;4996352;28;20042;-68
2021/06/01 12:18:39;;;;;;;3.45;1.83;;;;;;;24.19;27.33;99655.59;4975158;28;20054;-69
2021/06/01 12:21:10;;;;;;;4.30;2.08;;;;;;;24.32;28.18;99660.06;4975148;28;20065;-68
2021/06/01 12:23:43;;;;;;;8.43;2.22;;;;;;;24.59;27.55;99652.41;4974291;28;20050;-68
2021/06/01 12:26:17;;;;;;;3.65;2.00;;;;;;;24.73;28.79;99652.44;4974958;28;20058;-67
2021/06/01 12:32:04;;;;;;;4.45;2.03;;;;;;;25.03;27.85;99637.56;4974811;28;20423;-68
2021/06/01 12:34:58;;;;;;;3.33;1.80;;;;;;;24.89;27.02;99645.41;4974565;28;20062;-68
2021/06/01 12:45:46;;;;;;;3.13;1.90;;;;;;;23.77;27.59;99638.81;4974381;28;20062;-68
2021/06/01 13:08:09;;;;;;;3.45;2.00;;;;;;;24.36;27.98;99642.44;4995550;28;20046;-68
2021/06/01 13:21:39;;;;;;;5.00;2.10;;;;;;;24.64;27.40;99637.31;4995474;28;20458;-68
2021/06/01 13:40:35;;;;;;;4.05;1.92;;;;;;;24.17;27.35;99615.72;4973738;28;20058;-69
2021/06/01 13:46:03;;;;;;;4.65;2.25;;;;;;;24.11;27.83;99613.50;4973690;28;20451;-69
2021/06/01 13:48:53;;;;;;;8.57;2.03;;;;;;;23.98;27.65;99611.53;4973321;28;20121;-68
2021/06/01 13:51:38;;;;;;;3.42;2.15;;;;;;;23.69;28.08;99614.94;4973270;28;20042;-68
2021/06/01 13:56:57;;;;;;;4.05;1.73;;;;;;;23.93;28.34;99610.97;4973802;28;20153;-68
2021/06/01 14:10:59;;;;;;;3.67;2.00;;;;;;;23.59;29.14;99611.16;5033988;28;20072;-69
2021/06/01 14:22:01;;;;;;;3.50;1.95;;;;;;;23.21;27.81;99612.34;5033887;28;20057;-68